createdAt,value
2022-10-24T00:00:15.730Z,18.30
2022-10-24T00:02:42.532Z,13.15
2022-10-24T00:05:13.131Z,15.55
2022-10-24T00:07:40.786Z,17.08
2022-10-24T00:10:08.323Z,18.95
2022-10-24T00:12:35.110Z,14.38
2022-10-24T00:15:01.717Z,13.70
2022-10-24T00:17:28.297Z,13.18
2022-10-24T00:19:54.965Z,11.85
2022-10-24T00:22:21.645Z,16.13
2022-10-24T00:24:48.219Z,11.77
2022-10-24T00:27:14.833Z,14.90
2022-10-24T00:29:41.398Z,10.93
2022-10-24T00:32:08.031Z,14.80
2022-10-24T00:34:34.645Z,10.68
2022-10-24T00:37:02.080Z,16.65
2022-10-24T00:39:28.645Z,13.23
2022-10-24T00:41:58.852Z,13.48
2022-10-24T00:44:28.647Z,13.82
2022-10-24T00:47:01.411Z,16.88
2022-10-24T00:49:35.873Z,12.65
2022-10-24T00:52:06.561Z,14.52
2022-10-24T00:54:33.691Z,14.20
2022-10-24T00:57:06.498Z,15.48
2022-10-24T00:59:34.935Z,13.05
2022-10-24T01:02:01.854Z,11.90
2022-10-24T01:04:28.789Z,13.52
2022-10-24T01:07:28.655Z,12.68
2022-10-24T01:10:07.254Z,13.75
2022-10-24T01:12:48.714Z,12.70
2022-10-24T01:15:18.046Z,14.10
2022-10-24T01:18:06.521Z,14.20
2022-10-24T01:20:42.868Z,14.02
2022-10-24T01:23:59.934Z,13.40
2022-10-24T01:27:05.859Z,16.90
2022-10-24T01:29:55.780Z,14.50
2022-10-24T01:32:41.095Z,12.45
2022-10-24T01:35:25.907Z,14.63
2022-10-24T01:38:02.503Z,11.40
2022-10-24T01:40:35.554Z,12.18
2022-10-24T01:43:09.593Z,12.50
2022-10-24T01:45:40.131Z,16.33
2022-10-24T01:48:10.788Z,17.98
2022-10-24T01:50:39.027Z,16.52
2022-10-24T01:53:08.608Z,13.82
2022-10-24T01:55:37.781Z,12.40
2022-10-24T01:58:06.110Z,7.95
2022-10-24T02:00:32.804Z,9.70
2022-10-24T02:03:01.419Z,10.00
2022-10-24T02:05:42.378Z,17.70
2022-10-24T02:08:14.614Z,13.32
2022-10-24T02:10:48.814Z,13.95
2022-10-24T02:13:24.232Z,12.50
2022-10-24T02:15:53.266Z,13.02
2022-10-24T02:18:20.665Z,9.98
2022-10-24T02:21:10.231Z,10.77
2022-10-24T02:23:51.829Z,11.50
2022-10-24T02:26:26.892Z,12.93
2022-10-24T02:28:59.250Z,14.57
2022-10-24T02:31:31.502Z,10.85
2022-10-24T02:34:00.412Z,12.88
2022-10-24T02:36:29.618Z,15.13
2022-10-24T02:38:57.918Z,10.32
2022-10-24T02:41:30.093Z,11.23
2022-10-24T02:44:01.132Z,10.60
2022-10-24T02:46:28.358Z,10.35
2022-10-24T02:48:59.210Z,13.68
2022-10-24T02:51:30.497Z,14.98
2022-10-24T02:53:59.449Z,15.05
2022-10-24T02:56:26.485Z,13.15
2022-10-24T02:58:53.064Z,14.55
2022-10-24T03:01:19.722Z,10.82
2022-10-24T03:03:46.687Z,10.23
2022-10-24T03:06:13.342Z,14.68
2022-10-24T03:08:39.944Z,11.60
2022-10-24T03:11:06.611Z,9.60
2022-10-24T03:13:33.219Z,11.05
2022-10-24T03:15:59.781Z,10.38
2022-10-24T03:18:26.370Z,11.45
2022-10-24T03:20:52.966Z,16.30
2022-10-24T03:23:19.592Z,13.55
2022-10-24T03:25:46.195Z,13.27
2022-10-24T03:28:12.825Z,13.68
2022-10-24T03:30:39.417Z,12.60
2022-10-24T03:33:06.102Z,10.88
2022-10-24T03:35:32.670Z,13.95
2022-10-24T03:37:59.281Z,13.02
2022-10-24T03:40:25.824Z,11.32
2022-10-24T03:42:52.426Z,10.77
2022-10-24T03:45:19.073Z,14.70
2022-10-24T03:47:45.673Z,11.88
2022-10-24T03:50:12.226Z,13.52
2022-10-24T03:52:38.854Z,11.60
2022-10-24T03:55:05.857Z,8.68
2022-10-24T03:57:32.435Z,11.40
2022-10-24T03:59:59.054Z,10.55
2022-10-24T04:02:25.662Z,11.25
2022-10-24T04:04:52.275Z,10.52
2022-10-24T04:07:18.832Z,11.00
2022-10-24T04:09:45.401Z,8.65
2022-10-24T04:12:12.021Z,11.40
2022-10-24T04:14:38.712Z,6.13
2022-10-24T04:17:05.490Z,5.78
2022-10-24T04:19:32.111Z,10.98
2022-10-24T04:21:59.319Z,10.48
2022-10-24T04:24:26.550Z,12.00
2022-10-24T04:26:53.520Z,12.30
2022-10-24T04:29:20.488Z,10.88
2022-10-24T04:31:47.166Z,11.68
2022-10-24T04:34:14.016Z,13.65
2022-10-24T04:36:40.622Z,9.68
2022-10-24T04:39:07.312Z,10.75
2022-10-24T04:41:34.083Z,12.15
2022-10-24T04:44:00.667Z,9.95
2022-10-24T04:46:27.346Z,10.18
2022-10-24T04:48:53.941Z,12.38
2022-10-24T04:51:22.416Z,13.07
2022-10-24T04:53:50.203Z,10.65
2022-10-24T04:56:17.409Z,12.85
2022-10-24T04:58:44.110Z,12.48
2022-10-24T05:01:11.200Z,9.75
2022-10-24T05:03:37.834Z,12.55
2022-10-24T05:06:04.763Z,13.20
2022-10-24T05:08:31.336Z,12.88
2022-10-24T05:10:57.885Z,10.52
2022-10-24T05:13:24.462Z,13.02
2022-10-24T05:15:51.015Z,9.23
2022-10-24T05:18:17.596Z,13.40
2022-10-24T05:20:44.189Z,11.80
2022-10-24T05:23:10.938Z,9.90
2022-10-24T05:25:37.515Z,12.38
2022-10-24T05:28:04.194Z,11.80
2022-10-24T05:30:31.079Z,14.68
2022-10-24T05:32:57.650Z,13.55
2022-10-24T05:35:24.251Z,11.40
2022-10-24T05:37:50.872Z,13.40
2022-10-24T05:40:17.504Z,10.10
2022-10-24T05:42:44.359Z,14.88
2022-10-24T05:45:12.640Z,11.55
2022-10-24T05:47:39.269Z,8.02
2022-10-24T05:50:06.795Z,14.38
2022-10-24T05:52:36.275Z,13.98
2022-10-24T05:55:08.310Z,8.60
2022-10-24T05:57:38.430Z,10.15
2022-10-24T06:00:09.418Z,8.73
2022-10-24T06:02:39.804Z,9.07
2022-10-24T06:05:07.721Z,9.20
2022-10-24T06:07:35.241Z,9.65
2022-10-24T06:10:03.390Z,7.78
2022-10-24T06:12:30.066Z,6.28
2022-10-24T06:14:57.424Z,8.27
2022-10-24T06:17:24.034Z,8.00
2022-10-24T06:19:51.181Z,9.80
2022-10-24T06:22:19.237Z,11.35
2022-10-24T06:24:45.935Z,8.38
2022-10-24T06:27:12.773Z,8.98
2022-10-24T06:29:39.415Z,9.07
2022-10-24T06:32:06.020Z,9.18
2022-10-24T06:34:32.677Z,10.50
2022-10-24T06:36:59.404Z,8.68
2022-10-24T06:39:26.061Z,10.57
2022-10-24T06:41:52.717Z,7.90
2022-10-24T06:44:19.710Z,8.23
2022-10-24T06:46:46.331Z,12.23
2022-10-24T06:49:13.705Z,10.05
2022-10-24T06:51:41.256Z,11.88
2022-10-24T06:54:08.122Z,9.70
2022-10-24T06:56:34.742Z,9.95
2022-10-24T06:59:01.377Z,5.88
2022-10-24T07:01:28.745Z,9.75
2022-10-24T07:03:55.563Z,10.20
2022-10-24T07:06:25.572Z,7.60
2022-10-24T07:08:53.972Z,6.55
2022-10-24T07:11:20.895Z,6.43
2022-10-24T07:13:47.725Z,8.45
2022-10-24T07:16:14.828Z,7.10
2022-10-24T07:18:42.346Z,8.30
2022-10-24T07:21:13.902Z,6.93
2022-10-24T07:23:40.560Z,6.03
2022-10-24T07:26:10.855Z,9.40
2022-10-24T07:28:38.897Z,9.43
2022-10-24T07:31:06.101Z,6.55
2022-10-24T07:33:32.917Z,6.68
2022-10-24T07:35:59.569Z,6.97
2022-10-24T07:38:26.469Z,10.55
2022-10-24T07:40:53.129Z,10.65
2022-10-24T07:43:19.675Z,8.82
2022-10-24T07:45:49.180Z,7.53
2022-10-24T07:48:18.652Z,10.05
2022-10-24T07:50:46.906Z,6.05
2022-10-24T07:53:14.065Z,7.05
2022-10-24T07:55:42.261Z,7.22
2022-10-24T07:58:09.608Z,7.72
2022-10-24T08:00:39.105Z,5.78
2022-10-24T08:03:09.193Z,8.25
2022-10-24T08:05:38.367Z,7.97
2022-10-24T08:08:30.789Z,7.97
2022-10-24T08:10:52.117Z,7.75
2022-10-24T08:13:18.711Z,7.40
2022-10-24T08:15:45.273Z,9.07
2022-10-24T08:18:11.885Z,8.65
2022-10-24T08:20:38.507Z,8.70
2022-10-24T08:23:05.171Z,7.80
2022-10-24T08:25:31.812Z,6.13
2022-10-24T08:27:58.456Z,7.55
2022-10-24T08:30:25.076Z,6.70
2022-10-24T08:32:51.657Z,11.85
2022-10-24T08:35:19.681Z,5.90
2022-10-24T08:37:46.301Z,9.00
2022-10-24T08:40:19.189Z,5.78
2022-10-24T08:42:48.170Z,6.47
2022-10-24T08:45:52.732Z,6.53
2022-10-24T08:48:28.926Z,6.15
2022-10-24T08:51:05.683Z,4.93
2022-10-24T08:53:33.144Z,7.43
2022-10-24T08:56:01.523Z,5.47
2022-10-24T08:58:34.352Z,6.70
2022-10-24T09:01:04.917Z,6.88
2022-10-24T09:03:55.066Z,5.97
2022-10-24T09:06:26.174Z,5.97
2022-10-24T09:08:56.007Z,4.80
2022-10-24T09:11:43.962Z,6.65
2022-10-24T09:14:20.821Z,4.20
2022-10-24T09:16:54.636Z,5.07
2022-10-24T09:19:24.829Z,4.60
2022-10-24T09:21:53.811Z,5.07
2022-10-24T09:24:38.907Z,6.15
2022-10-24T09:27:11.842Z,3.95
2022-10-24T09:29:38.976Z,5.53
2022-10-24T09:32:15.401Z,5.60
2022-10-24T09:34:42.035Z,6.68
2022-10-24T09:37:32.473Z,4.18
2022-10-24T09:40:32.940Z,9.18
2022-10-24T09:43:16.811Z,4.32
2022-10-24T09:45:59.175Z,4.75
2022-10-24T09:48:32.662Z,5.53
2022-10-24T09:51:00.128Z,6.45
2022-10-24T09:53:38.478Z,5.75
2022-10-24T09:56:12.274Z,5.05
2022-10-24T09:58:40.090Z,4.38
2022-10-24T10:01:19.338Z,4.80
2022-10-24T10:04:06.086Z,4.97
2022-10-24T10:06:35.813Z,5.55
2022-10-24T10:09:11.375Z,6.55
2022-10-24T10:11:40.768Z,6.00
2022-10-24T10:14:28.384Z,4.78
2022-10-24T10:17:00.972Z,3.67
2022-10-24T10:19:29.866Z,5.97
2022-10-24T10:21:58.238Z,5.13
2022-10-24T10:24:36.016Z,5.70
2022-10-24T10:27:23.003Z,4.75
2022-10-24T10:29:49.575Z,5.30
2022-10-24T10:32:32.109Z,6.38
2022-10-24T10:35:11.431Z,5.75
2022-10-24T10:37:51.128Z,4.15
2022-10-24T10:40:34.061Z,5.53
2022-10-24T10:43:37.697Z,4.15
2022-10-24T10:46:04.221Z,4.20
2022-10-24T10:48:41.018Z,6.18
2022-10-24T10:51:41.947Z,5.45
2022-10-24T10:54:40.865Z,5.50
2022-10-24T10:57:12.699Z,5.85
2022-10-24T10:59:42.203Z,4.20
2022-10-24T11:02:27.352Z,5.35
2022-10-24T11:04:59.350Z,4.60
2022-10-24T11:07:41.513Z,5.03
2022-10-24T11:10:17.403Z,4.45
2022-10-24T11:12:46.407Z,4.55
2022-10-24T11:15:15.681Z,7.38
2022-10-24T11:17:50.053Z,4.78
2022-10-24T11:20:30.719Z,5.88
2022-10-24T11:23:24.719Z,6.57
2022-10-24T11:26:06.694Z,4.55
2022-10-24T11:28:36.372Z,3.00
2022-10-24T11:31:25.220Z,4.38
2022-10-24T11:34:00.237Z,5.05
2022-10-24T11:36:45.878Z,4.97
2022-10-24T11:39:22.392Z,7.15
2022-10-24T11:42:12.022Z,4.97
2022-10-24T11:45:01.495Z,6.65
2022-10-24T11:47:28.025Z,4.50
2022-10-24T11:50:20.619Z,6.07
2022-10-24T11:52:52.697Z,7.55
2022-10-24T11:55:37.271Z,7.38
2022-10-24T11:58:05.568Z,5.05
2022-10-24T12:00:54.740Z,3.53
2022-10-24T12:03:24.028Z,5.35
2022-10-24T12:06:12.363Z,10.73
2022-10-24T12:09:07.011Z,4.47
2022-10-24T12:11:57.695Z,4.43
2022-10-24T12:14:27.004Z,6.28
2022-10-24T12:16:59.329Z,5.43
2022-10-24T12:19:28.086Z,4.43
2022-10-24T12:22:01.580Z,4.50
2022-10-24T12:24:38.786Z,4.32
2022-10-24T12:27:09.096Z,3.85
2022-10-24T12:29:37.034Z,5.55
2022-10-24T12:32:33.528Z,3.35
2022-10-24T12:37:49.274Z,7.53
2022-10-24T12:40:48.610Z,7.10
2022-10-24T12:43:26.556Z,4.30
2022-10-24T12:45:53.281Z,5.18
2022-10-24T12:48:30.854Z,7.95
2022-10-24T12:51:04.110Z,4.40
2022-10-24T12:53:33.810Z,4.60
2022-10-24T12:56:00.869Z,5.68
2022-10-24T12:58:34.177Z,8.13
2022-10-24T13:01:05.589Z,8.13
2022-10-24T13:03:50.778Z,6.57
2022-10-24T13:06:32.337Z,6.30
2022-10-24T13:09:30.697Z,7.20
2022-10-24T13:12:07.859Z,5.95
2022-10-24T13:14:43.443Z,7.57
2022-10-24T13:17:36.229Z,7.05
2022-10-24T13:20:07.475Z,5.22
2022-10-24T13:22:37.010Z,6.65
2022-10-24T13:25:34.669Z,6.65
2022-10-24T13:28:25.299Z,5.78
2022-10-24T13:31:17.617Z,5.80
2022-10-24T13:33:45.772Z,7.05
2022-10-24T13:36:27.988Z,5.50
2022-10-24T13:39:04.977Z,8.70
2022-10-24T13:41:35.223Z,4.95
2022-10-24T13:44:36.872Z,6.38
2022-10-24T13:47:19.138Z,5.85
2022-10-24T13:50:01.195Z,4.68
2022-10-24T13:52:49.443Z,8.13
2022-10-24T13:55:29.175Z,6.95
2022-10-24T13:57:59.211Z,6.93
2022-10-24T14:00:32.195Z,4.95
2022-10-24T14:03:02.280Z,7.03
2022-10-24T14:05:36.302Z,6.22
2022-10-24T14:08:04.167Z,5.68
2022-10-24T14:10:31.009Z,11.57
2022-10-24T14:12:59.517Z,9.98
2022-10-24T14:15:30.447Z,4.82
2022-10-24T14:18:13.493Z,4.10
2022-10-24T14:20:41.109Z,7.32
2022-10-24T14:23:31.523Z,4.97
2022-10-24T14:26:11.083Z,8.40
2022-10-24T14:28:44.884Z,7.30
2022-10-24T14:31:27.708Z,6.90
2022-10-24T14:33:56.309Z,9.68
2022-10-24T14:36:29.500Z,6.93
2022-10-24T14:38:58.775Z,5.90
2022-10-24T14:41:30.941Z,5.45
2022-10-24T14:43:58.974Z,4.13
2022-10-24T14:46:37.809Z,7.20
2022-10-24T14:49:19.722Z,3.75
2022-10-24T14:51:48.794Z,6.30
2022-10-24T14:54:40.107Z,5.93
2022-10-24T14:57:17.254Z,7.97
2022-10-24T14:59:46.842Z,5.80
2022-10-24T15:02:37.524Z,6.60
2022-10-24T15:05:19.096Z,7.00
2022-10-24T15:08:09.208Z,8.07
2022-10-24T15:10:35.438Z,10.90
2022-10-24T15:13:17.819Z,6.32
2022-10-24T15:15:44.329Z,6.70
2022-10-24T15:18:18.818Z,6.30
2022-10-24T15:20:47.745Z,8.95
2022-10-24T15:23:20.965Z,9.90
2022-10-24T15:25:59.922Z,4.57
2022-10-24T15:29:01.954Z,11.27
2022-10-24T15:31:30.110Z,7.90
2022-10-24T15:33:56.767Z,8.73
2022-10-24T15:36:28.580Z,10.25
2022-10-24T15:39:00.826Z,10.50
2022-10-24T15:41:27.993Z,14.68
2022-10-24T15:43:55.694Z,12.35
2022-10-24T15:46:22.534Z,13.65
2022-10-24T15:48:49.784Z,6.28
2022-10-24T15:51:18.777Z,5.25
2022-10-24T15:53:46.175Z,6.85
2022-10-24T15:56:12.896Z,8.98
2022-10-24T15:58:40.625Z,6.13
2022-10-24T16:01:08.437Z,4.85
2022-10-24T16:03:36.090Z,5.13
2022-10-24T16:06:04.454Z,5.88
2022-10-24T16:08:31.658Z,5.95
2022-10-24T16:10:58.292Z,5.25
2022-10-24T16:13:25.005Z,7.75
2022-10-24T16:15:51.694Z,5.85
2022-10-24T16:18:18.446Z,6.38
2022-10-24T16:20:45.107Z,7.10
2022-10-24T16:23:14.789Z,5.55
2022-10-24T16:25:41.602Z,6.57
2022-10-24T16:28:08.274Z,6.43
2022-10-24T16:30:37.350Z,8.35
2022-10-24T16:33:03.949Z,6.57
2022-10-24T16:35:33.174Z,7.72
2022-10-24T16:38:00.935Z,6.28
2022-10-24T16:40:28.875Z,9.73
2022-10-24T16:42:57.898Z,6.03
2022-10-24T16:45:25.666Z,7.20
2022-10-24T16:47:52.466Z,6.97
2022-10-24T16:50:24.182Z,5.65
2022-10-24T16:52:56.759Z,6.97
2022-10-24T16:55:23.863Z,7.53
2022-10-24T16:57:50.434Z,6.65
2022-10-24T17:00:19.383Z,5.65
2022-10-24T17:02:50.889Z,4.95
2022-10-24T17:05:23.216Z,7.22
2022-10-24T17:07:50.401Z,5.72
2022-10-24T17:10:20.700Z,5.50
2022-10-24T17:12:50.849Z,5.82
2022-10-24T17:15:22.016Z,5.88
2022-10-24T17:17:49.867Z,5.68
2022-10-24T17:20:17.447Z,6.63
2022-10-24T17:22:45.424Z,6.00
2022-10-24T17:25:24.427Z,8.35
2022-10-24T17:27:51.839Z,9.15
2022-10-24T17:30:21.962Z,7.53
2022-10-24T17:32:49.352Z,5.45
2022-10-24T17:35:18.920Z,5.28
2022-10-24T17:38:20.469Z,6.03
2022-10-24T17:40:49.086Z,6.88
2022-10-24T17:43:23.253Z,6.13
2022-10-24T17:45:50.534Z,8.07
2022-10-24T17:48:17.543Z,5.43
2022-10-24T17:50:44.479Z,6.30
2022-10-24T17:53:12.557Z,5.93
2022-10-24T17:55:47.722Z,6.72
2022-10-24T17:58:15.822Z,8.25
2022-10-24T18:00:44.081Z,6.03
2022-10-24T18:03:11.185Z,7.63
2022-10-24T18:05:38.771Z,5.38
2022-10-24T18:08:08.168Z,5.43
2022-10-24T18:10:37.102Z,9.30
2022-10-24T18:13:03.783Z,7.95
2022-10-24T18:15:30.578Z,5.88
2022-10-24T18:17:57.155Z,10.90
2022-10-24T18:20:24.320Z,8.95
2022-10-24T18:22:51.130Z,9.38
2022-10-24T18:25:22.695Z,8.43
2022-10-24T18:27:51.316Z,8.77
2022-10-24T18:30:19.498Z,6.15
2022-10-24T18:32:46.967Z,8.90
2022-10-24T18:35:14.313Z,6.20
2022-10-24T18:37:40.947Z,7.82
2022-10-24T18:40:09.496Z,5.88
2022-10-24T18:42:50.820Z,13.32
2022-10-24T18:45:21.477Z,8.57
2022-10-24T18:47:49.416Z,7.60
2022-10-24T18:50:19.223Z,5.47
2022-10-24T18:53:10.697Z,7.00
2022-10-24T18:55:37.658Z,6.28
2022-10-24T18:58:04.568Z,6.40
2022-10-24T19:00:32.922Z,5.28
2022-10-24T19:03:11.592Z,7.70
2022-10-24T19:05:44.014Z,9.70
2022-10-24T19:08:17.234Z,10.20
2022-10-24T19:10:44.333Z,6.30
2022-10-24T19:13:11.058Z,8.88
2022-10-24T19:15:42.573Z,11.52
2022-10-24T19:18:13.937Z,9.90
2022-10-24T19:20:42.313Z,11.20
2022-10-24T19:23:13.790Z,5.47
2022-10-24T19:25:40.758Z,9.55
2022-10-24T19:28:10.806Z,9.32
2022-10-24T19:30:40.735Z,8.20
2022-10-24T19:33:07.315Z,7.78
2022-10-24T19:35:39.002Z,9.93
2022-10-24T19:38:05.736Z,9.32
2022-10-24T19:40:32.265Z,8.05
2022-10-24T19:42:58.886Z,7.78
2022-10-24T19:45:25.528Z,8.10
2022-10-24T19:47:55.678Z,9.20
2022-10-24T19:50:22.636Z,10.55
2022-10-24T19:52:49.258Z,7.10
2022-10-24T19:55:15.900Z,9.32
2022-10-24T19:57:42.657Z,7.28
2022-10-24T20:00:09.881Z,9.82
2022-10-24T20:02:39.287Z,7.80
2022-10-24T20:05:06.414Z,8.88
2022-10-24T20:07:33.600Z,9.25
2022-10-24T20:10:00.209Z,9.52
2022-10-24T20:12:27.073Z,11.63
2022-10-24T20:14:53.656Z,8.05
2022-10-24T20:17:20.233Z,8.77
2022-10-24T20:19:46.814Z,8.25
2022-10-24T20:22:13.415Z,8.35
2022-10-24T20:24:40.038Z,11.60
2022-10-24T20:29:38.196Z,7.20
2022-10-24T20:32:05.106Z,6.45
2022-10-24T20:34:31.692Z,6.22
2022-10-24T20:36:58.301Z,6.03
2022-10-24T20:39:26.195Z,8.88
2022-10-24T20:41:54.157Z,7.15
2022-10-24T20:44:21.510Z,7.38
2022-10-24T20:46:48.087Z,5.65
2022-10-24T20:49:14.718Z,9.20
2022-10-24T20:51:42.833Z,8.88
2022-10-24T20:54:10.566Z,9.60
2022-10-24T20:56:42.100Z,10.07
2022-10-24T20:59:09.077Z,9.45
2022-10-24T21:01:35.681Z,4.68
2022-10-24T21:04:02.393Z,6.07
2022-10-24T21:06:31.865Z,4.97
2022-10-24T21:11:34.825Z,4.93
2022-10-24T21:14:07.157Z,4.32
2022-10-24T21:16:34.566Z,5.57
2022-10-24T21:19:01.439Z,3.97
2022-10-24T21:21:28.238Z,5.90
2022-10-24T21:24:02.252Z,6.10
2022-10-24T21:26:32.787Z,5.65
2022-10-24T21:29:08.708Z,6.57
2022-10-24T21:31:45.894Z,5.55
2022-10-24T21:34:12.497Z,5.68
2022-10-24T21:36:39.088Z,6.28
2022-10-24T21:39:05.673Z,4.88
2022-10-24T21:41:33.303Z,5.43
2022-10-24T21:43:59.930Z,7.10
2022-10-24T21:46:30.566Z,6.28
2022-10-24T21:48:57.417Z,5.18
2022-10-24T21:51:28.163Z,6.28
2022-10-24T21:53:58.043Z,4.80
2022-10-24T21:56:30.215Z,5.97
2022-10-24T22:01:37.060Z,5.30
2022-10-24T22:04:04.958Z,3.45
2022-10-24T22:06:33.046Z,7.90
2022-10-24T22:09:00.021Z,4.05
2022-10-24T22:11:31.310Z,6.32
2022-10-24T22:13:58.400Z,6.60
2022-10-24T22:16:27.778Z,5.50
2022-10-24T22:18:55.037Z,6.15
2022-10-24T22:21:33.766Z,7.15
2022-10-24T22:26:39.306Z,5.85
2022-10-24T22:29:08.114Z,7.75
2022-10-24T22:31:35.331Z,4.00
2022-10-24T22:34:02.420Z,5.97
2022-10-24T22:36:59.589Z,4.18
2022-10-24T22:39:27.524Z,5.18
2022-10-24T22:41:54.522Z,3.88
2022-10-24T22:44:21.963Z,4.20
2022-10-24T22:47:13.622Z,4.55
2022-10-24T22:50:21.486Z,4.13
2022-10-24T22:52:51.414Z,3.22
2022-10-24T22:55:28.308Z,5.22
2022-10-24T22:57:55.235Z,5.32
2022-10-24T23:00:22.177Z,5.30
2022-10-24T23:02:51.568Z,7.18
2022-10-24T23:05:35.666Z,5.53
2022-10-24T23:08:09.855Z,5.47
2022-10-24T23:10:39.556Z,7.93
2022-10-24T23:13:06.676Z,4.05
2022-10-24T23:15:33.525Z,4.47
2022-10-24T23:18:00.337Z,7.80
2022-10-24T23:20:41.654Z,4.95
2022-10-24T23:23:28.196Z,5.05
2022-10-24T23:26:09.080Z,4.70
2022-10-24T23:28:51.255Z,6.53
2022-10-24T23:31:18.072Z,5.95
2022-10-24T23:33:44.889Z,5.57
2022-10-24T23:36:22.210Z,6.03
2022-10-24T23:38:50.885Z,5.70
2022-10-24T23:41:17.849Z,6.13
2022-10-24T23:43:44.731Z,3.75
2022-10-24T23:46:36.230Z,5.38
2022-10-24T23:49:14.622Z,5.32
2022-10-24T23:51:46.611Z,4.22
2022-10-24T23:54:13.907Z,5.38
2022-10-24T23:56:40.831Z,6.13
2022-10-24T23:59:07.467Z,7.75
